createdAt,value
2022-11-12T00:01:40.489Z,17.70
2022-11-12T00:04:26.350Z,16.63
2022-11-12T00:07:12.623Z,17.50
2022-11-12T00:09:58.867Z,18.33
2022-11-12T00:12:45.239Z,17.42
2022-11-12T00:15:31.196Z,18.05
2022-11-12T00:18:17.035Z,16.85
2022-11-12T00:21:03.015Z,16.42
2022-11-12T00:23:48.941Z,18.50
2022-11-12T00:26:35.131Z,15.00
2022-11-12T00:29:21.179Z,18.23
2022-11-12T00:32:08.049Z,16.10
2022-11-12T00:34:53.972Z,16.17
2022-11-12T00:37:39.755Z,18.70
2022-11-12T00:40:26.028Z,16.38
2022-11-12T00:43:11.963Z,16.90
2022-11-12T00:45:57.998Z,19.42
2022-11-12T00:48:43.945Z,18.20
2022-11-12T00:51:30.109Z,18.92
2022-11-12T00:54:16.200Z,16.08
2022-11-12T00:57:01.872Z,16.08
2022-11-12T00:59:47.756Z,15.95
2022-11-12T01:02:40.737Z,17.67
2022-11-12T01:05:47.595Z,16.10
2022-11-12T01:08:54.805Z,17.40
2022-11-12T01:11:59.405Z,18.25
2022-11-12T01:15:05.788Z,18.92
2022-11-12T01:18:10.296Z,18.42
2022-11-12T01:21:15.135Z,20.00
2022-11-12T01:24:20.036Z,17.48
2022-11-12T01:27:24.678Z,17.60
2022-11-12T01:30:29.413Z,17.85
2022-11-12T01:33:33.972Z,17.38
2022-11-12T01:36:39.561Z,17.73
2022-11-12T01:39:44.502Z,18.00
2022-11-12T01:42:53.678Z,16.45
2022-11-12T01:45:59.461Z,18.77
2022-11-12T01:49:12.332Z,19.65
2022-11-12T01:52:18.017Z,16.85
2022-11-12T01:55:25.222Z,16.10
2022-11-12T01:58:31.392Z,16.80
2022-11-12T02:01:37.170Z,17.10
2022-11-12T02:04:42.936Z,16.23
2022-11-12T02:07:48.429Z,18.58
2022-11-12T02:10:53.175Z,17.35
2022-11-12T02:14:03.530Z,17.88
2022-11-12T02:17:08.528Z,16.38
2022-11-12T02:20:13.550Z,15.77
2022-11-12T02:23:17.955Z,17.38
2022-11-12T02:26:22.959Z,16.35
2022-11-12T02:29:27.991Z,16.27
2022-11-12T02:32:32.776Z,16.55
2022-11-12T02:35:37.881Z,21.80
2022-11-12T02:38:42.684Z,18.52
2022-11-12T02:41:47.511Z,19.50
2022-11-12T02:44:52.273Z,17.90
2022-11-12T02:47:56.835Z,16.92
2022-11-12T02:51:02.135Z,17.08
2022-11-12T02:54:06.624Z,17.38
2022-11-12T02:57:11.541Z,17.58
2022-11-12T03:00:16.588Z,17.05
2022-11-12T03:03:21.553Z,15.80
2022-11-12T03:06:26.465Z,17.80
2022-11-12T03:09:31.396Z,16.75
2022-11-12T03:12:36.392Z,14.77
2022-11-12T03:15:41.064Z,15.25
2022-11-12T03:18:45.833Z,15.30
2022-11-12T03:21:50.702Z,13.77
2022-11-12T03:24:55.763Z,14.88
2022-11-12T03:28:03.616Z,13.82
2022-11-12T03:31:08.413Z,14.70
2022-11-12T03:34:13.502Z,14.10
2022-11-12T03:37:17.955Z,13.45
2022-11-12T03:40:22.711Z,14.88
2022-11-12T03:43:27.071Z,14.13
2022-11-12T03:46:32.090Z,14.15
2022-11-12T03:49:36.886Z,15.88
2022-11-12T03:52:50.074Z,13.63
2022-11-12T03:55:55.007Z,13.77
2022-11-12T03:58:59.612Z,14.27
2022-11-12T04:02:04.498Z,14.60
2022-11-12T04:05:47.905Z,13.85
2022-11-12T04:08:52.601Z,14.00
2022-11-12T04:12:17.343Z,15.38
2022-11-12T04:15:22.115Z,14.80
2022-11-12T04:18:45.444Z,13.90
2022-11-12T04:21:55.956Z,13.13
2022-11-12T04:25:19.399Z,13.38
2022-11-12T04:31:29.060Z,13.45
2022-11-12T04:34:34.854Z,15.45
2022-11-12T04:37:46.362Z,14.63
2022-11-12T04:41:09.581Z,15.20
2022-11-12T04:44:32.680Z,13.63
2022-11-12T04:47:39.558Z,13.88
2022-11-12T04:50:46.672Z,14.32
2022-11-12T04:53:51.327Z,13.23
2022-11-12T04:56:56.056Z,13.77
2022-11-12T05:00:00.977Z,12.32
2022-11-12T05:03:05.689Z,12.13
2022-11-12T05:06:30.458Z,10.45
2022-11-12T05:09:35.895Z,10.55
2022-11-12T05:12:41.427Z,10.48
2022-11-12T05:15:46.423Z,9.98
2022-11-12T05:18:51.080Z,10.07
2022-11-12T05:22:13.918Z,11.10
2022-11-12T05:25:32.183Z,11.35
2022-11-12T05:28:37.272Z,10.80
2022-11-12T05:31:42.201Z,11.57
2022-11-12T05:34:47.177Z,10.40
2022-11-12T05:37:51.662Z,10.00
2022-11-12T05:40:56.542Z,9.88
2022-11-12T05:44:01.223Z,8.13
2022-11-12T05:47:06.113Z,8.18
2022-11-12T05:50:10.897Z,8.48
2022-11-12T05:53:15.725Z,8.77
2022-11-12T05:56:20.480Z,8.68
2022-11-12T05:59:25.364Z,8.88
2022-11-12T06:02:30.294Z,9.50
2022-11-12T06:05:35.615Z,9.48
2022-11-12T06:08:40.795Z,8.95
2022-11-12T06:11:45.524Z,8.65
2022-11-12T06:14:50.268Z,9.27
2022-11-12T06:17:55.243Z,9.32
2022-11-12T06:21:20.091Z,9.25
2022-11-12T06:24:24.632Z,8.90
2022-11-12T06:27:29.416Z,9.27
2022-11-12T06:30:34.252Z,10.07
2022-11-12T06:33:39.115Z,10.68
2022-11-12T06:36:43.831Z,10.40
2022-11-12T06:39:48.910Z,11.98
2022-11-12T06:42:58.333Z,10.88
2022-11-12T06:46:05.511Z,10.40
2022-11-12T06:49:10.144Z,10.68
2022-11-12T06:52:16.847Z,11.25
2022-11-12T06:55:21.971Z,9.43
2022-11-12T06:58:28.386Z,10.35
2022-11-12T07:01:33.526Z,9.60
2022-11-12T07:04:38.325Z,10.95
2022-11-12T07:07:43.063Z,10.00
2022-11-12T07:10:47.805Z,10.50
2022-11-12T07:13:52.515Z,11.02
2022-11-12T07:16:57.603Z,10.10
2022-11-12T07:20:04.105Z,10.48
2022-11-12T07:23:08.939Z,10.30
2022-11-12T07:26:18.940Z,8.93
2022-11-12T07:29:42.752Z,8.00
2022-11-12T07:32:51.992Z,7.18
2022-11-12T07:36:00.302Z,7.72
2022-11-12T07:39:05.004Z,7.57
2022-11-12T07:42:09.925Z,6.88
2022-11-12T07:45:14.891Z,6.68
2022-11-12T07:48:19.624Z,6.50
2022-11-12T07:51:26.435Z,6.57
2022-11-12T07:54:31.010Z,5.63
2022-11-12T07:57:36.068Z,5.57
2022-11-12T08:00:40.768Z,4.75
2022-11-12T08:03:45.708Z,4.88
2022-11-12T08:06:50.726Z,5.10
2022-11-12T08:09:55.534Z,5.97
2022-11-12T08:13:00.367Z,6.28
2022-11-12T08:16:05.438Z,5.68
2022-11-12T08:19:10.276Z,6.55
2022-11-12T08:22:15.422Z,6.25
2022-11-12T08:25:20.136Z,4.80
2022-11-12T08:28:25.097Z,4.25
2022-11-12T08:31:29.979Z,4.55
2022-11-12T08:34:36.292Z,4.57
2022-11-12T08:37:41.231Z,4.78
2022-11-12T08:40:46.264Z,4.05
2022-11-12T08:43:51.088Z,4.55
2022-11-12T08:46:55.892Z,4.38
2022-11-12T08:50:00.455Z,4.40
2022-11-12T08:53:07.892Z,4.25
2022-11-12T08:56:12.819Z,4.43
2022-11-12T08:59:17.685Z,4.63
2022-11-12T09:02:22.580Z,4.15
2022-11-12T09:05:27.981Z,4.45
2022-11-12T09:08:34.824Z,3.70
2022-11-12T09:11:39.499Z,4.72
2022-11-12T09:14:44.024Z,4.53
2022-11-12T09:17:49.197Z,3.70
2022-11-12T09:20:54.007Z,4.10
2022-11-12T09:23:58.548Z,3.58
2022-11-12T09:27:03.441Z,6.43
2022-11-12T09:30:08.501Z,5.25
2022-11-12T09:33:18.609Z,4.55
2022-11-12T09:36:23.167Z,4.40
2022-11-12T09:39:27.856Z,4.20
2022-11-12T09:42:34.256Z,4.20
2022-11-12T09:45:39.024Z,3.95
2022-11-12T09:48:48.756Z,3.53
2022-11-12T09:52:01.672Z,3.65
2022-11-12T09:55:08.860Z,3.35
2022-11-12T09:58:14.613Z,3.60
2022-11-12T10:01:38.050Z,3.80
2022-11-12T10:04:45.963Z,3.42
2022-11-12T10:08:06.067Z,3.28
2022-11-12T10:11:20.839Z,3.70
2022-11-12T10:14:44.315Z,3.40
2022-11-12T10:18:00.279Z,3.70
2022-11-12T10:21:35.948Z,3.63
2022-11-12T10:24:42.208Z,3.22
2022-11-12T10:27:47.066Z,3.45
2022-11-12T10:30:54.258Z,3.17
2022-11-12T10:34:14.700Z,3.30
2022-11-12T10:37:57.847Z,3.45
2022-11-12T10:41:18.654Z,5.53
2022-11-12T10:44:26.843Z,4.05
2022-11-12T10:47:43.076Z,4.20
2022-11-12T10:50:47.724Z,3.50
2022-11-12T10:53:52.683Z,3.60
2022-11-12T10:56:57.763Z,3.65
2022-11-12T11:00:12.718Z,3.55
2022-11-12T11:03:33.216Z,3.60
2022-11-12T11:06:37.897Z,3.70
2022-11-12T11:09:56.658Z,3.85
2022-11-12T11:13:22.195Z,3.10
2022-11-12T11:16:28.923Z,3.10
2022-11-12T11:19:41.603Z,3.25
2022-11-12T11:22:47.219Z,4.18
2022-11-12T11:25:54.950Z,3.35
2022-11-12T11:29:08.985Z,3.45
2022-11-12T11:32:41.774Z,3.35
2022-11-12T11:35:56.215Z,4.55
2022-11-12T11:39:26.016Z,3.80
2022-11-12T11:42:39.573Z,4.80
2022-11-12T11:46:04.266Z,4.28
2022-11-12T11:49:27.531Z,4.40
2022-11-12T11:52:52.124Z,4.40
2022-11-12T11:55:59.151Z,4.75
2022-11-12T11:59:33.257Z,4.93
2022-11-12T12:03:11.820Z,4.83
2022-11-12T12:06:30.707Z,4.22
2022-11-12T12:09:45.019Z,5.03
2022-11-12T12:13:14.454Z,4.57
2022-11-12T12:16:24.756Z,3.80
2022-11-12T12:19:50.405Z,4.30
2022-11-12T12:23:03.277Z,4.30
2022-11-12T12:26:47.162Z,4.93
2022-11-12T12:29:59.473Z,4.95
2022-11-12T12:33:16.132Z,5.30
2022-11-12T12:36:31.020Z,5.25
2022-11-12T12:39:47.840Z,4.82
2022-11-12T12:43:01.872Z,4.90
2022-11-12T12:46:10.105Z,5.22
2022-11-12T12:49:21.406Z,5.45
2022-11-12T12:52:26.140Z,5.65
2022-11-12T12:55:42.384Z,5.28
2022-11-12T12:58:47.287Z,5.38
2022-11-12T13:02:00.499Z,5.50
2022-11-12T13:05:05.814Z,6.07
2022-11-12T13:08:13.504Z,5.13
2022-11-12T13:12:00.269Z,6.18
2022-11-12T13:15:46.666Z,7.00
2022-11-12T13:18:51.331Z,6.05
2022-11-12T13:22:17.889Z,5.55
2022-11-12T13:25:24.930Z,5.43
2022-11-12T13:28:29.948Z,6.10
2022-11-12T13:31:34.985Z,5.22
2022-11-12T13:34:39.584Z,5.20
2022-11-12T13:37:45.471Z,4.93
2022-11-12T13:41:09.658Z,5.47
2022-11-12T13:44:16.208Z,4.40
2022-11-12T13:47:24.674Z,4.60
2022-11-12T13:50:29.592Z,4.40
2022-11-12T13:53:35.529Z,4.90
2022-11-12T13:56:41.214Z,3.75
2022-11-12T13:59:49.928Z,3.80
2022-11-12T14:02:56.647Z,3.80
2022-11-12T14:06:26.730Z,4.00
2022-11-12T14:10:12.300Z,3.88
2022-11-12T14:13:20.104Z,3.67
2022-11-12T14:16:27.945Z,4.32
2022-11-12T14:19:58.620Z,4.93
2022-11-12T14:23:13.916Z,5.00
2022-11-12T14:26:38.445Z,5.25
2022-11-12T14:29:43.901Z,6.90
2022-11-12T14:33:00.494Z,6.28
2022-11-12T14:36:15.987Z,6.70
2022-11-12T14:39:20.703Z,6.05
2022-11-12T14:42:35.283Z,5.78
2022-11-12T14:49:40.698Z,7.03
2022-11-12T14:52:50.882Z,5.78
2022-11-12T14:55:57.051Z,6.05
2022-11-12T14:59:01.934Z,4.80
2022-11-12T15:05:55.021Z,4.28
2022-11-12T15:09:00.372Z,5.00
2022-11-12T15:12:11.398Z,5.45
2022-11-12T15:15:23.826Z,7.03
2022-11-12T15:18:30.409Z,8.52
2022-11-12T15:21:35.892Z,7.05
2022-11-12T15:24:44.007Z,6.00
2022-11-12T15:27:49.118Z,6.05
2022-11-12T15:31:00.962Z,5.20
2022-11-12T15:34:24.022Z,5.32
2022-11-12T15:37:31.836Z,4.22
2022-11-12T15:40:47.074Z,5.30
2022-11-12T15:43:52.521Z,4.53
2022-11-12T15:46:59.141Z,5.18
2022-11-12T15:50:14.496Z,5.65
2022-11-12T15:53:19.962Z,5.35
2022-11-12T15:56:24.727Z,5.25
2022-11-12T15:59:29.532Z,6.03
2022-11-12T16:02:34.272Z,6.53
2022-11-12T16:05:39.777Z,5.88
2022-11-12T16:08:44.678Z,5.25
2022-11-12T16:11:50.394Z,5.55
2022-11-12T16:14:55.784Z,5.55
2022-11-12T16:18:00.660Z,5.70
2022-11-12T16:21:05.873Z,6.18
2022-11-12T16:24:10.528Z,5.95
2022-11-12T16:27:16.613Z,5.70
2022-11-12T16:30:27.377Z,5.13
2022-11-12T16:33:31.808Z,5.28
2022-11-12T16:36:36.916Z,5.35
2022-11-12T16:39:42.177Z,5.30
2022-11-12T16:42:46.973Z,6.35
2022-11-12T16:45:52.125Z,5.80
2022-11-12T16:48:56.986Z,7.43
2022-11-12T16:52:01.803Z,10.40
2022-11-12T16:55:07.015Z,10.43
2022-11-12T16:58:13.920Z,13.63
2022-11-12T17:01:30.653Z,13.25
2022-11-12T17:04:39.368Z,19.05
2022-11-12T17:07:44.167Z,18.42
2022-11-12T17:10:48.929Z,18.58
2022-11-12T17:13:53.610Z,16.63
2022-11-12T17:16:58.542Z,15.98
2022-11-12T17:20:04.219Z,15.25
2022-11-12T17:23:09.064Z,10.70
2022-11-12T17:26:19.462Z,9.20
2022-11-12T17:29:24.174Z,11.00
2022-11-12T17:32:29.186Z,9.63
2022-11-12T17:35:34.525Z,11.85
2022-11-12T17:38:39.941Z,12.73
2022-11-12T17:41:44.927Z,12.38
2022-11-12T17:44:49.600Z,10.98
2022-11-12T17:47:54.412Z,8.27
2022-11-12T17:51:11.920Z,8.10
2022-11-12T17:54:17.292Z,6.95
2022-11-12T17:57:22.628Z,7.10
2022-11-12T18:00:28.368Z,9.00
2022-11-12T18:03:33.345Z,7.50
2022-11-12T18:06:37.958Z,7.10
2022-11-12T18:09:42.570Z,7.18
2022-11-12T18:12:47.198Z,8.38
2022-11-12T18:15:51.938Z,6.97
2022-11-12T18:18:57.447Z,8.20
2022-11-12T18:22:02.415Z,7.90
2022-11-12T18:25:07.580Z,9.57
2022-11-12T18:28:12.509Z,9.65
2022-11-12T18:31:17.591Z,9.20
2022-11-12T18:34:22.136Z,9.85
2022-11-12T18:37:26.828Z,11.48
2022-11-12T18:40:31.795Z,19.70
2022-11-12T18:43:37.473Z,18.48
2022-11-12T18:46:42.148Z,18.17
2022-11-12T18:49:46.942Z,17.55
2022-11-12T18:52:51.787Z,17.80
2022-11-12T18:56:00.277Z,20.35
2022-11-12T18:59:04.908Z,18.05
2022-11-12T19:02:11.108Z,16.23
2022-11-12T19:05:15.751Z,13.15
2022-11-12T19:08:20.512Z,17.45
2022-11-12T19:11:25.280Z,17.30
2022-11-12T19:14:30.580Z,17.10
2022-11-12T19:17:35.283Z,15.40
2022-11-12T19:20:39.767Z,13.65
2022-11-12T19:23:46.326Z,12.73
2022-11-12T19:26:53.728Z,12.02
2022-11-12T19:30:02.919Z,9.82
2022-11-12T19:33:08.640Z,9.80
2022-11-12T19:36:15.654Z,11.23
2022-11-12T19:39:20.244Z,12.07
2022-11-12T19:42:25.141Z,11.90
2022-11-12T19:45:30.112Z,10.82
2022-11-12T19:48:35.571Z,9.20
2022-11-12T19:51:40.289Z,8.82
2022-11-12T19:54:45.616Z,10.40
2022-11-12T19:57:50.495Z,10.98
2022-11-12T20:00:55.300Z,13.30
2022-11-12T20:04:00.160Z,11.90
2022-11-12T20:07:04.903Z,13.63
2022-11-12T20:10:10.126Z,16.40
2022-11-12T20:13:14.492Z,14.57
2022-11-12T20:16:24.862Z,18.95
2022-11-12T20:19:30.262Z,18.88
2022-11-12T20:22:35.932Z,17.77
2022-11-12T20:25:40.941Z,19.17
2022-11-12T20:28:45.883Z,14.68
2022-11-12T20:31:50.715Z,12.38
2022-11-12T20:34:55.900Z,12.85
2022-11-12T20:38:00.643Z,12.40
2022-11-12T20:41:06.573Z,13.00
2022-11-12T20:44:11.595Z,12.73
2022-11-12T20:47:16.332Z,12.45
2022-11-12T20:50:21.150Z,13.20
2022-11-12T20:53:25.755Z,14.65
2022-11-12T20:56:31.315Z,12.50
2022-11-12T20:59:41.135Z,12.80
2022-11-12T21:02:45.819Z,10.55
2022-11-12T21:05:57.602Z,12.70
2022-11-12T21:09:02.964Z,8.15
2022-11-12T21:12:08.064Z,8.18
2022-11-12T21:15:12.679Z,8.70
2022-11-12T21:18:17.738Z,11.07
2022-11-12T21:21:22.474Z,10.65
2022-11-12T21:24:27.177Z,11.20
2022-11-12T21:27:32.544Z,16.13
2022-11-12T21:30:36.781Z,16.92
2022-11-12T21:33:41.845Z,14.57
2022-11-12T21:36:46.516Z,16.63
2022-11-12T21:39:51.352Z,11.93
2022-11-12T21:42:56.151Z,12.38
2022-11-12T21:46:01.136Z,10.35
2022-11-12T21:49:05.730Z,9.27
2022-11-12T21:52:12.993Z,9.38
2022-11-12T21:55:17.515Z,9.95
2022-11-12T21:58:22.432Z,10.25
2022-11-12T22:01:29.478Z,9.95
2022-11-12T22:04:34.080Z,8.70
2022-11-12T22:07:38.671Z,9.40
2022-11-12T22:10:43.256Z,9.00
2022-11-12T22:13:48.035Z,9.93
2022-11-12T22:16:52.708Z,9.90
2022-11-12T22:19:57.268Z,10.20
2022-11-12T22:23:01.903Z,9.63
2022-11-12T22:26:18.063Z,9.18
2022-11-12T22:29:22.811Z,9.27
2022-11-12T22:32:27.437Z,10.02
2022-11-12T22:35:33.112Z,10.95
2022-11-12T22:38:42.574Z,12.60
2022-11-12T22:41:47.063Z,10.23
2022-11-12T22:44:51.856Z,10.23
2022-11-12T22:47:59.345Z,9.73
2022-11-12T22:51:07.311Z,9.18
2022-11-12T22:54:15.683Z,8.77
2022-11-12T22:57:20.289Z,8.25
2022-11-12T23:00:30.562Z,9.07
2022-11-12T23:03:35.818Z,9.50
2022-11-12T23:06:40.493Z,9.27
2022-11-12T23:09:45.300Z,8.43
2022-11-12T23:12:50.014Z,8.93
2022-11-12T23:15:54.860Z,8.40
2022-11-12T23:18:59.775Z,10.23
2022-11-12T23:22:07.822Z,8.23
2022-11-12T23:25:12.895Z,7.60
2022-11-12T23:28:17.556Z,8.73
2022-11-12T23:31:28.048Z,8.05
2022-11-12T23:34:32.766Z,9.30
2022-11-12T23:37:37.259Z,9.68
2022-11-12T23:40:42.139Z,8.38
2022-11-12T23:43:47.154Z,9.90
2022-11-12T23:46:51.923Z,7.53
2022-11-12T23:49:56.824Z,8.65
2022-11-12T23:53:01.468Z,8.43
2022-11-12T23:56:09.334Z,8.88
2022-11-12T23:59:14.173Z,8.50
